sensor_id;sensor_type;location;lat;lon;timestamp;P1;durP1;ratioP1;P2;durP2;ratioP2
20894;SDS011;10607;42.066;24.742;2023-08-06T00:00:21;13.90;;;6.90;;
20894;SDS011;10607;42.066;24.742;2023-08-06T00:02:46;16.45;;;7.07;;
20894;SDS011;10607;42.066;24.742;2023-08-06T00:05:11;11.63;;;7.13;;
20894;SDS011;10607;42.066;24.742;2023-08-06T00:07:37;10.05;;;6.32;;
20894;SDS011;10607;42.066;24.742;2023-08-06T00:10:02;11.65;;;6.68;;
20894;SDS011;10607;42.066;24.742;2023-08-06T00:12:27;10.57;;;7.38;;
20894;SDS011;10607;42.066;24.742;2023-08-06T00:14:53;14.88;;;7.25;;
20894;SDS011;10607;42.066;24.742;2023-08-06T00:17:18;10.20;;;7.85;;
20894;SDS011;10607;42.066;24.742;2023-08-06T00:19:43;12.85;;;6.90;;
20894;SDS011;10607;42.066;24.742;2023-08-06T00:22:09;14.10;;;6.57;;
20894;SDS011;10607;42.066;24.742;2023-08-06T00:24:34;17.73;;;7.63;;
20894;SDS011;10607;42.066;24.742;2023-08-06T00:27:00;13.27;;;7.13;;
20894;SDS011;10607;42.066;24.742;2023-08-06T00:29:25;11.60;;;7.15;;
20894;SDS011;10607;42.066;24.742;2023-08-06T00:31:51;12.23;;;7.53;;
20894;SDS011;10607;42.066;24.742;2023-08-06T00:34:16;13.20;;;7.63;;
20894;SDS011;10607;42.066;24.742;2023-08-06T00:36:41;14.57;;;7.38;;
20894;SDS011;10607;42.066;24.742;2023-08-06T00:39:07;13.85;;;7.88;;
20894;SDS011;10607;42.066;24.742;2023-08-06T00:41:32;17.70;;;7.53;;
20894;SDS011;10607;42.066;24.742;2023-08-06T00:43:57;13.13;;;8.18;;
20894;SDS011;10607;42.066;24.742;2023-08-06T00:46:23;15.70;;;7.38;;
20894;SDS011;10607;42.066;24.742;2023-08-06T00:48:48;14.13;;;7.93;;
20894;SDS011;10607;42.066;24.742;2023-08-06T00:51:14;18.17;;;8.40;;
20894;SDS011;10607;42.066;24.742;2023-08-06T00:53:40;13.68;;;8.63;;
20894;SDS011;10607;42.066;24.742;2023-08-06T00:56:06;20.67;;;8.27;;
20894;SDS011;10607;42.066;24.742;2023-08-06T00:58:32;16.63;;;8.38;;
20894;SDS011;10607;42.066;24.742;2023-08-06T01:00:57;18.70;;;8.10;;
20894;SDS011;10607;42.066;24.742;2023-08-06T01:03:22;18.77;;;9.07;;
20894;SDS011;10607;42.066;24.742;2023-08-06T01:05:48;21.90;;;8.57;;
20894;SDS011;10607;42.066;24.742;2023-08-06T01:15:46;12.48;;;8.30;;
20894;SDS011;10607;42.066;24.742;2023-08-06T01:18:11;22.00;;;10.27;;
20894;SDS011;10607;42.066;24.742;2023-08-06T01:20:36;15.50;;;8.20;;
20894;SDS011;10607;42.066;24.742;2023-08-06T01:23:02;17.52;;;8.75;;
20894;SDS011;10607;42.066;24.742;2023-08-06T01:25:32;19.55;;;9.48;;
20894;SDS011;10607;42.066;24.742;2023-08-06T01:28:00;13.63;;;8.65;;
20894;SDS011;10607;42.066;24.742;2023-08-06T01:30:29;17.40;;;8.93;;
20894;SDS011;10607;42.066;24.742;2023-08-06T01:32:57;11.45;;;7.93;;
20894;SDS011;10607;42.066;24.742;2023-08-06T01:35:23;16.15;;;8.00;;
20894;SDS011;10607;42.066;24.742;2023-08-06T01:37:50;13.40;;;8.70;;
20894;SDS011;10607;42.066;24.742;2023-08-06T01:40:16;13.27;;;9.15;;
20894;SDS011;10607;42.066;24.742;2023-08-06T01:42:41;11.63;;;8.90;;
20894;SDS011;10607;42.066;24.742;2023-08-06T01:45:07;13.63;;;8.48;;
20894;SDS011;10607;42.066;24.742;2023-08-06T01:47:32;18.63;;;8.32;;
20894;SDS011;10607;42.066;24.742;2023-08-06T01:49:57;15.23;;;9.25;;
20894;SDS011;10607;42.066;24.742;2023-08-06T01:52:23;15.25;;;9.63;;
20894;SDS011;10607;42.066;24.742;2023-08-06T01:54:48;25.45;;;8.95;;
20894;SDS011;10607;42.066;24.742;2023-08-06T01:57:13;19.60;;;9.02;;
20894;SDS011;10607;42.066;24.742;2023-08-06T01:59:38;15.88;;;9.25;;
20894;SDS011;10607;42.066;24.742;2023-08-06T02:02:04;19.27;;;9.15;;
20894;SDS011;10607;42.066;24.742;2023-08-06T02:04:29;17.90;;;9.57;;
20894;SDS011;10607;42.066;24.742;2023-08-06T02:06:54;17.45;;;9.68;;
20894;SDS011;10607;42.066;24.742;2023-08-06T02:09:20;19.08;;;9.35;;
20894;SDS011;10607;42.066;24.742;2023-08-06T02:11:45;12.57;;;8.95;;
20894;SDS011;10607;42.066;24.742;2023-08-06T02:14:10;23.00;;;9.73;;
20894;SDS011;10607;42.066;24.742;2023-08-06T02:16:36;12.15;;;9.50;;
20894;SDS011;10607;42.066;24.742;2023-08-06T02:19:02;17.50;;;10.32;;
20894;SDS011;10607;42.066;24.742;2023-08-06T02:21:27;18.15;;;9.30;;
20894;SDS011;10607;42.066;24.742;2023-08-06T02:23:52;15.05;;;9.20;;
20894;SDS011;10607;42.066;24.742;2023-08-06T02:26:18;18.92;;;9.88;;
20894;SDS011;10607;42.066;24.742;2023-08-06T02:28:43;14.85;;;8.88;;
20894;SDS011;10607;42.066;24.742;2023-08-06T02:31:08;20.00;;;9.23;;
20894;SDS011;10607;42.066;24.742;2023-08-06T02:33:33;20.23;;;9.82;;
20894;SDS011;10607;42.066;24.742;2023-08-06T02:36:02;14.88;;;9.88;;
20894;SDS011;10607;42.066;24.742;2023-08-06T02:38:28;20.92;;;9.88;;
20894;SDS011;10607;42.066;24.742;2023-08-06T02:40:54;21.60;;;9.63;;
20894;SDS011;10607;42.066;24.742;2023-08-06T02:43:19;16.25;;;10.50;;
20894;SDS011;10607;42.066;24.742;2023-08-06T02:45:44;16.38;;;9.75;;
20894;SDS011;10607;42.066;24.742;2023-08-06T02:48:10;20.90;;;10.40;;
20894;SDS011;10607;42.066;24.742;2023-08-06T02:50:39;16.08;;;9.85;;
20894;SDS011;10607;42.066;24.742;2023-08-06T02:53:04;19.08;;;9.82;;
20894;SDS011;10607;42.066;24.742;2023-08-06T02:55:30;18.80;;;9.30;;
20894;SDS011;10607;42.066;24.742;2023-08-06T02:57:55;13.95;;;9.73;;
20894;SDS011;10607;42.066;24.742;2023-08-06T03:00:21;13.55;;;10.55;;
20894;SDS011;10607;42.066;24.742;2023-08-06T03:02:46;16.92;;;10.13;;
20894;SDS011;10607;42.066;24.742;2023-08-06T03:05:11;16.83;;;10.60;;
20894;SDS011;10607;42.066;24.742;2023-08-06T03:07:37;14.93;;;9.77;;
20894;SDS011;10607;42.066;24.742;2023-08-06T03:10:02;13.93;;;9.75;;
20894;SDS011;10607;42.066;24.742;2023-08-06T03:12:28;15.82;;;10.65;;
20894;SDS011;10607;42.066;24.742;2023-08-06T03:14:53;16.40;;;11.95;;
20894;SDS011;10607;42.066;24.742;2023-08-06T03:17:18;17.63;;;11.32;;
20894;SDS011;10607;42.066;24.742;2023-08-06T03:19:44;18.02;;;12.07;;
20894;SDS011;10607;42.066;24.742;2023-08-06T03:22:09;21.10;;;13.65;;
20894;SDS011;10607;42.066;24.742;2023-08-06T03:24:34;21.15;;;14.20;;
20894;SDS011;10607;42.066;24.742;2023-08-06T03:27:00;18.85;;;14.15;;
20894;SDS011;10607;42.066;24.742;2023-08-06T03:29:25;19.92;;;14.13;;
20894;SDS011;10607;42.066;24.742;2023-08-06T03:31:51;25.92;;;13.13;;
20894;SDS011;10607;42.066;24.742;2023-08-06T03:34:17;25.20;;;14.05;;
20894;SDS011;10607;42.066;24.742;2023-08-06T03:36:42;22.63;;;14.55;;
20894;SDS011;10607;42.066;24.742;2023-08-06T03:39:07;21.05;;;15.05;;
20894;SDS011;10607;42.066;24.742;2023-08-06T03:41:32;23.48;;;14.32;;
20894;SDS011;10607;42.066;24.742;2023-08-06T03:43:58;19.77;;;15.93;;
20894;SDS011;10607;42.066;24.742;2023-08-06T03:46:23;24.08;;;16.02;;
20894;SDS011;10607;42.066;24.742;2023-08-06T03:48:48;25.17;;;16.23;;
20894;SDS011;10607;42.066;24.742;2023-08-06T03:51:14;22.02;;;15.95;;
20894;SDS011;10607;42.066;24.742;2023-08-06T03:53:39;22.90;;;15.80;;
20894;SDS011;10607;42.066;24.742;2023-08-06T03:56:04;23.42;;;14.68;;
20894;SDS011;10607;42.066;24.742;2023-08-06T03:58:29;23.65;;;15.77;;
20894;SDS011;10607;42.066;24.742;2023-08-06T04:00:59;29.23;;;16.45;;
20894;SDS011;10607;42.066;24.742;2023-08-06T04:03:24;22.65;;;14.43;;
20894;SDS011;10607;42.066;24.742;2023-08-06T04:05:49;24.25;;;14.98;;
20894;SDS011;10607;42.066;24.742;2023-08-06T04:08:15;19.52;;;14.57;;
20894;SDS011;10607;42.066;24.742;2023-08-06T04:10:40;25.55;;;15.98;;
20894;SDS011;10607;42.066;24.742;2023-08-06T04:13:05;28.60;;;15.52;;
20894;SDS011;10607;42.066;24.742;2023-08-06T04:15:33;24.00;;;15.48;;
20894;SDS011;10607;42.066;24.742;2023-08-06T04:17:58;25.33;;;15.50;;
20894;SDS011;10607;42.066;24.742;2023-08-06T04:20:23;24.10;;;15.07;;
20894;SDS011;10607;42.066;24.742;2023-08-06T04:22:49;22.65;;;14.60;;
20894;SDS011;10607;42.066;24.742;2023-08-06T04:25:14;23.25;;;16.27;;
20894;SDS011;10607;42.066;24.742;2023-08-06T04:27:39;23.80;;;17.23;;
20894;SDS011;10607;42.066;24.742;2023-08-06T04:30:07;22.38;;;16.70;;
20894;SDS011;10607;42.066;24.742;2023-08-06T04:32:32;24.63;;;17.58;;
20894;SDS011;10607;42.066;24.742;2023-08-06T04:34:57;23.20;;;17.00;;
20894;SDS011;10607;42.066;24.742;2023-08-06T04:37:23;24.90;;;15.65;;
20894;SDS011;10607;42.066;24.742;2023-08-06T04:39:48;23.80;;;16.45;;
20894;SDS011;10607;42.066;24.742;2023-08-06T04:42:14;19.13;;;14.38;;
20894;SDS011;10607;42.066;24.742;2023-08-06T04:44:39;20.35;;;14.95;;
20894;SDS011;10607;42.066;24.742;2023-08-06T04:47:04;18.25;;;13.93;;
20894;SDS011;10607;42.066;24.742;2023-08-06T04:49:29;22.40;;;13.77;;
20894;SDS011;10607;42.066;24.742;2023-08-06T04:51:55;20.98;;;14.82;;
20894;SDS011;10607;42.066;24.742;2023-08-06T04:54:20;21.00;;;12.23;;
20894;SDS011;10607;42.066;24.742;2023-08-06T04:56:45;17.25;;;12.20;;
20894;SDS011;10607;42.066;24.742;2023-08-06T04:59:11;18.75;;;11.52;;
20894;SDS011;10607;42.066;24.742;2023-08-06T05:01:36;15.85;;;11.13;;
20894;SDS011;10607;42.066;24.742;2023-08-06T05:04:01;17.25;;;10.75;;
20894;SDS011;10607;42.066;24.742;2023-08-06T05:06:27;18.10;;;9.70;;
20894;SDS011;10607;42.066;24.742;2023-08-06T05:08:52;17.42;;;11.57;;
20894;SDS011;10607;42.066;24.742;2023-08-06T05:11:17;18.85;;;10.27;;
20894;SDS011;10607;42.066;24.742;2023-08-06T05:13:42;15.35;;;9.77;;
20894;SDS011;10607;42.066;24.742;2023-08-06T05:16:08;14.15;;;11.43;;
20894;SDS011;10607;42.066;24.742;2023-08-06T05:18:33;20.80;;;10.73;;
20894;SDS011;10607;42.066;24.742;2023-08-06T05:20:59;16.85;;;10.35;;
20894;SDS011;10607;42.066;24.742;2023-08-06T05:23:25;22.63;;;14.05;;
20894;SDS011;10607;42.066;24.742;2023-08-06T05:25:50;23.95;;;17.00;;
20894;SDS011;10607;42.066;24.742;2023-08-06T05:28:15;29.20;;;18.10;;
20894;SDS011;10607;42.066;24.742;2023-08-06T05:30:41;32.92;;;19.70;;
20894;SDS011;10607;42.066;24.742;2023-08-06T05:33:06;27.52;;;20.60;;
20894;SDS011;10607;42.066;24.742;2023-08-06T05:35:31;33.92;;;23.40;;
20894;SDS011;10607;42.066;24.742;2023-08-06T05:37:57;33.13;;;23.98;;
20894;SDS011;10607;42.066;24.742;2023-08-06T05:40:22;32.58;;;25.42;;
20894;SDS011;10607;42.066;24.742;2023-08-06T05:42:47;30.80;;;25.02;;
20894;SDS011;10607;42.066;24.742;2023-08-06T05:45:13;33.80;;;25.92;;
20894;SDS011;10607;42.066;24.742;2023-08-06T05:47:38;31.00;;;22.17;;
20894;SDS011;10607;42.066;24.742;2023-08-06T05:50:04;26.45;;;18.60;;
20894;SDS011;10607;42.066;24.742;2023-08-06T05:52:29;22.98;;;16.70;;
20894;SDS011;10607;42.066;24.742;2023-08-06T05:54:55;32.28;;;21.88;;
20894;SDS011;10607;42.066;24.742;2023-08-06T05:57:20;31.33;;;23.48;;
20894;SDS011;10607;42.066;24.742;2023-08-06T05:59:45;28.15;;;23.92;;
20894;SDS011;10607;42.066;24.742;2023-08-06T06:02:11;26.17;;;17.85;;
20894;SDS011;10607;42.066;24.742;2023-08-06T06:04:36;21.73;;;13.70;;
20894;SDS011;10607;42.066;24.742;2023-08-06T06:07:02;17.33;;;12.93;;
20894;SDS011;10607;42.066;24.742;2023-08-06T06:09:27;16.90;;;11.70;;
20894;SDS011;10607;42.066;24.742;2023-08-06T06:11:52;18.52;;;11.15;;
20894;SDS011;10607;42.066;24.742;2023-08-06T06:14:18;22.85;;;12.02;;
20894;SDS011;10607;42.066;24.742;2023-08-06T06:16:43;21.42;;;16.85;;
20894;SDS011;10607;42.066;24.742;2023-08-06T06:19:09;47.53;;;39.20;;
20894;SDS011;10607;42.066;24.742;2023-08-06T06:21:34;16.58;;;12.85;;
20894;SDS011;10607;42.066;24.742;2023-08-06T06:23:59;20.92;;;14.45;;
20894;SDS011;10607;42.066;24.742;2023-08-06T06:26:25;16.83;;;11.25;;
20894;SDS011;10607;42.066;24.742;2023-08-06T06:28:50;18.30;;;14.05;;
20894;SDS011;10607;42.066;24.742;2023-08-06T06:31:15;19.38;;;11.65;;
20894;SDS011;10607;42.066;24.742;2023-08-06T06:33:40;15.60;;;10.02;;
20894;SDS011;10607;42.066;24.742;2023-08-06T06:36:06;16.02;;;10.55;;
20894;SDS011;10607;42.066;24.742;2023-08-06T06:38:33;13.52;;;10.88;;
20894;SDS011;10607;42.066;24.742;2023-08-06T06:40:58;17.10;;;11.73;;
20894;SDS011;10607;42.066;24.742;2023-08-06T06:43:23;20.30;;;12.05;;
20894;SDS011;10607;42.066;24.742;2023-08-06T06:45:52;16.25;;;10.90;;
20894;SDS011;10607;42.066;24.742;2023-08-06T06:48:17;14.93;;;10.80;;
20894;SDS011;10607;42.066;24.742;2023-08-06T06:50:46;18.77;;;10.98;;
20894;SDS011;10607;42.066;24.742;2023-08-06T06:53:11;16.50;;;10.43;;
20894;SDS011;10607;42.066;24.742;2023-08-06T06:55:37;17.90;;;9.20;;
20894;SDS011;10607;42.066;24.742;2023-08-06T06:58:02;12.95;;;9.07;;
20894;SDS011;10607;42.066;24.742;2023-08-06T07:00:27;14.85;;;9.00;;
20894;SDS011;10607;42.066;24.742;2023-08-06T07:02:53;15.23;;;8.88;;
20894;SDS011;10607;42.066;24.742;2023-08-06T07:05:18;12.77;;;7.78;;
20894;SDS011;10607;42.066;24.742;2023-08-06T07:07:43;11.40;;;7.72;;
20894;SDS011;10607;42.066;24.742;2023-08-06T07:10:08;13.98;;;8.43;;
20894;SDS011;10607;42.066;24.742;2023-08-06T07:12:34;16.08;;;8.05;;
20894;SDS011;10607;42.066;24.742;2023-08-06T07:15:01;11.95;;;7.60;;
20894;SDS011;10607;42.066;24.742;2023-08-06T07:17:26;11.38;;;6.90;;
20894;SDS011;10607;42.066;24.742;2023-08-06T07:19:51;16.60;;;7.38;;
20894;SDS011;10607;42.066;24.742;2023-08-06T07:22:16;11.27;;;6.70;;
20894;SDS011;10607;42.066;24.742;2023-08-06T07:24:42;12.63;;;7.95;;
20894;SDS011;10607;42.066;24.742;2023-08-06T07:27:07;13.73;;;7.55;;
20894;SDS011;10607;42.066;24.742;2023-08-06T07:29:32;14.48;;;7.75;;
20894;SDS011;10607;42.066;24.742;2023-08-06T07:31:58;14.55;;;7.95;;
20894;SDS011;10607;42.066;24.742;2023-08-06T07:34:23;9.48;;;8.48;;
20894;SDS011;10607;42.066;24.742;2023-08-06T07:36:48;15.55;;;9.38;;
20894;SDS011;10607;42.066;24.742;2023-08-06T07:39:13;14.95;;;9.88;;
20894;SDS011;10607;42.066;24.742;2023-08-06T07:41:39;14.05;;;9.77;;
20894;SDS011;10607;42.066;24.742;2023-08-06T07:44:04;16.85;;;11.95;;
20894;SDS011;10607;42.066;24.742;2023-08-06T07:46:29;17.15;;;10.35;;
20894;SDS011;10607;42.066;24.742;2023-08-06T07:48:55;16.83;;;9.15;;
20894;SDS011;10607;42.066;24.742;2023-08-06T07:51:20;16.20;;;9.57;;
20894;SDS011;10607;42.066;24.742;2023-08-06T07:53:45;13.05;;;9.30;;
20894;SDS011;10607;42.066;24.742;2023-08-06T07:56:11;13.45;;;8.68;;
20894;SDS011;10607;42.066;24.742;2023-08-06T07:58:36;12.18;;;7.50;;
20894;SDS011;10607;42.066;24.742;2023-08-06T08:01:01;12.40;;;8.85;;
20894;SDS011;10607;42.066;24.742;2023-08-06T08:03:27;11.98;;;8.07;;
20894;SDS011;10607;42.066;24.742;2023-08-06T08:05:54;11.10;;;7.20;;
20894;SDS011;10607;42.066;24.742;2023-08-06T08:08:21;12.63;;;8.55;;
20894;SDS011;10607;42.066;24.742;2023-08-06T08:10:46;11.45;;;8.27;;
20894;SDS011;10607;42.066;24.742;2023-08-06T08:13:12;15.18;;;8.30;;
20894;SDS011;10607;42.066;24.742;2023-08-06T08:15:37;11.38;;;6.78;;
20894;SDS011;10607;42.066;24.742;2023-08-06T08:18:02;10.20;;;7.30;;
20894;SDS011;10607;42.066;24.742;2023-08-06T08:20:28;10.25;;;6.55;;
20894;SDS011;10607;42.066;24.742;2023-08-06T08:22:57;8.55;;;6.50;;
20894;SDS011;10607;42.066;24.742;2023-08-06T08:25:22;13.20;;;6.43;;
20894;SDS011;10607;42.066;24.742;2023-08-06T08:27:47;8.88;;;5.70;;
20894;SDS011;10607;42.066;24.742;2023-08-06T08:30:13;9.60;;;6.18;;
20894;SDS011;10607;42.066;24.742;2023-08-06T08:32:38;10.07;;;6.10;;
20894;SDS011;10607;42.066;24.742;2023-08-06T08:35:03;8.77;;;5.90;;
20894;SDS011;10607;42.066;24.742;2023-08-06T08:37:29;8.85;;;5.53;;
20894;SDS011;10607;42.066;24.742;2023-08-06T08:39:54;5.85;;;5.25;;
20894;SDS011;10607;42.066;24.742;2023-08-06T08:42:19;9.57;;;5.55;;
20894;SDS011;10607;42.066;24.742;2023-08-06T08:44:45;5.88;;;4.93;;
20894;SDS011;10607;42.066;24.742;2023-08-06T08:47:10;6.10;;;5.50;;
20894;SDS011;10607;42.066;24.742;2023-08-06T08:49:36;5.20;;;4.70;;
20894;SDS011;10607;42.066;24.742;2023-08-06T08:52:03;6.25;;;5.22;;
20894;SDS011;10607;42.066;24.742;2023-08-06T08:54:31;4.22;;;3.80;;
20894;SDS011;10607;42.066;24.742;2023-08-06T08:56:57;5.60;;;4.60;;
20894;SDS011;10607;42.066;24.742;2023-08-06T08:59:22;5.45;;;4.50;;
20894;SDS011;10607;42.066;24.742;2023-08-06T09:01:48;5.45;;;4.38;;
20894;SDS011;10607;42.066;24.742;2023-08-06T09:04:16;4.60;;;3.75;;
20894;SDS011;10607;42.066;24.742;2023-08-06T09:06:41;4.47;;;3.70;;
20894;SDS011;10607;42.066;24.742;2023-08-06T09:09:08;5.00;;;3.67;;
20894;SDS011;10607;42.066;24.742;2023-08-06T09:11:36;4.97;;;4.20;;
20894;SDS011;10607;42.066;24.742;2023-08-06T09:14:06;12.40;;;4.18;;
20894;SDS011;10607;42.066;24.742;2023-08-06T09:16:33;7.05;;;2.92;;
20894;SDS011;10607;42.066;24.742;2023-08-06T09:19:06;7.80;;;3.00;;
20894;SDS011;10607;42.066;24.742;2023-08-06T09:21:31;4.82;;;3.53;;
20894;SDS011;10607;42.066;24.742;2023-08-06T09:23:58;5.25;;;3.15;;
20894;SDS011;10607;42.066;24.742;2023-08-06T09:26:23;6.45;;;3.13;;
20894;SDS011;10607;42.066;24.742;2023-08-06T09:28:49;4.90;;;3.33;;
20894;SDS011;10607;42.066;24.742;2023-08-06T09:31:17;3.13;;;2.65;;
20894;SDS011;10607;42.066;24.742;2023-08-06T09:33:42;4.38;;;3.83;;
20894;SDS011;10607;42.066;24.742;2023-08-06T09:36:12;6.97;;;4.75;;
20894;SDS011;10607;42.066;24.742;2023-08-06T09:38:38;5.22;;;4.50;;
20894;SDS011;10607;42.066;24.742;2023-08-06T09:41:06;5.35;;;4.55;;
20894;SDS011;10607;42.066;24.742;2023-08-06T09:44:05;5.15;;;4.65;;
20894;SDS011;10607;42.066;24.742;2023-08-06T09:46:23;5.05;;;4.55;;
20894;SDS011;10607;42.066;24.742;2023-08-06T09:48:50;5.05;;;4.50;;
20894;SDS011;10607;42.066;24.742;2023-08-06T09:51:15;5.15;;;4.50;;
20894;SDS011;10607;42.066;24.742;2023-08-06T09:53:41;6.90;;;5.00;;
20894;SDS011;10607;42.066;24.742;2023-08-06T09:56:07;7.38;;;5.20;;
20894;SDS011;10607;42.066;24.742;2023-08-06T09:58:33;5.85;;;4.90;;
20894;SDS011;10607;42.066;24.742;2023-08-06T10:00:59;5.65;;;5.03;;
20894;SDS011;10607;42.066;24.742;2023-08-06T10:03:25;6.75;;;6.07;;
20894;SDS011;10607;42.066;24.742;2023-08-06T10:05:50;10.43;;;5.82;;
20894;SDS011;10607;42.066;24.742;2023-08-06T10:08:16;7.85;;;5.60;;
20894;SDS011;10607;42.066;24.742;2023-08-06T10:10:41;7.43;;;6.00;;
20894;SDS011;10607;42.066;24.742;2023-08-06T10:13:07;7.88;;;6.13;;
20894;SDS011;10607;42.066;24.742;2023-08-06T10:15:33;10.45;;;6.80;;
20894;SDS011;10607;42.066;24.742;2023-08-06T10:17:59;5.75;;;5.25;;
20894;SDS011;10607;42.066;24.742;2023-08-06T10:20:24;5.82;;;4.95;;
20894;SDS011;10607;42.066;24.742;2023-08-06T10:23:08;6.57;;;4.88;;
20894;SDS011;10607;42.066;24.742;2023-08-06T10:25:33;5.60;;;4.95;;
20894;SDS011;10607;42.066;24.742;2023-08-06T10:27:59;8.68;;;5.55;;
20894;SDS011;10607;42.066;24.742;2023-08-06T10:32:50;8.82;;;5.30;;
20894;SDS011;10607;42.066;24.742;2023-08-06T10:40:29;6.32;;;5.68;;
20894;SDS011;10607;42.066;24.742;2023-08-06T10:42:58;6.57;;;5.65;;
20894;SDS011;10607;42.066;24.742;2023-08-06T10:45:23;7.13;;;6.40;;
20894;SDS011;10607;42.066;24.742;2023-08-06T10:47:53;7.40;;;6.15;;
20894;SDS011;10607;42.066;24.742;2023-08-06T10:50:18;7.88;;;6.20;;
20894;SDS011;10607;42.066;24.742;2023-08-06T10:52:44;7.97;;;7.18;;
20894;SDS011;10607;42.066;24.742;2023-08-06T10:55:10;7.68;;;6.70;;
20894;SDS011;10607;42.066;24.742;2023-08-06T10:57:35;10.60;;;7.68;;
20894;SDS011;10607;42.066;24.742;2023-08-06T11:00:01;8.02;;;6.90;;
20894;SDS011;10607;42.066;24.742;2023-08-06T11:02:27;7.95;;;7.15;;
20894;SDS011;10607;42.066;24.742;2023-08-06T11:04:53;7.65;;;6.90;;
20894;SDS011;10607;42.066;24.742;2023-08-06T11:07:18;7.45;;;6.75;;
20894;SDS011;10607;42.066;24.742;2023-08-06T11:09:43;7.07;;;6.13;;
20894;SDS011;10607;42.066;24.742;2023-08-06T11:12:09;8.23;;;6.72;;
20894;SDS011;10607;42.066;24.742;2023-08-06T11:14:35;8.52;;;7.20;;
20894;SDS011;10607;42.066;24.742;2023-08-06T11:17:00;10.13;;;7.88;;
20894;SDS011;10607;42.066;24.742;2023-08-06T11:19:26;8.77;;;6.95;;
20894;SDS011;10607;42.066;24.742;2023-08-06T11:21:51;8.23;;;6.75;;
20894;SDS011;10607;42.066;24.742;2023-08-06T11:24:17;12.30;;;8.30;;
20894;SDS011;10607;42.066;24.742;2023-08-06T11:26:42;9.05;;;7.28;;
20894;SDS011;10607;42.066;24.742;2023-08-06T11:29:09;9.20;;;6.40;;
20894;SDS011;10607;42.066;24.742;2023-08-06T11:31:35;9.27;;;6.57;;
20894;SDS011;10607;42.066;24.742;2023-08-06T11:34:01;8.43;;;6.28;;
20894;SDS011;10607;42.066;24.742;2023-08-06T11:36:30;8.55;;;6.40;;
20894;SDS011;10607;42.066;24.742;2023-08-06T11:38:56;6.75;;;6.07;;
20894;SDS011;10607;42.066;24.742;2023-08-06T11:41:21;7.43;;;5.43;;
20894;SDS011;10607;42.066;24.742;2023-08-06T11:43:46;6.38;;;5.78;;
20894;SDS011;10607;42.066;24.742;2023-08-06T11:46:12;5.35;;;4.85;;
20894;SDS011;10607;42.066;24.742;2023-08-06T11:48:53;6.55;;;5.50;;
20894;SDS011;10607;42.066;24.742;2023-08-06T11:51:22;7.13;;;5.47;;
20894;SDS011;10607;42.066;24.742;2023-08-06T11:53:50;6.63;;;5.40;;
20894;SDS011;10607;42.066;24.742;2023-08-06T11:56:16;9.77;;;5.22;;
20894;SDS011;10607;42.066;24.742;2023-08-06T11:58:42;5.90;;;5.40;;
20894;SDS011;10607;42.066;24.742;2023-08-06T12:01:07;6.88;;;5.15;;
20894;SDS011;10607;42.066;24.742;2023-08-06T12:03:32;8.50;;;4.80;;
20894;SDS011;10607;42.066;24.742;2023-08-06T12:05:58;4.78;;;4.10;;
20894;SDS011;10607;42.066;24.742;2023-08-06T12:08:27;5.20;;;4.60;;
20894;SDS011;10607;42.066;24.742;2023-08-06T12:10:53;4.88;;;4.38;;
20894;SDS011;10607;42.066;24.742;2023-08-06T12:13:18;8.95;;;4.75;;
20894;SDS011;10607;42.066;24.742;2023-08-06T12:15:44;5.22;;;3.90;;
20894;SDS011;10607;42.066;24.742;2023-08-06T12:18:09;7.18;;;4.53;;
20894;SDS011;10607;42.066;24.742;2023-08-06T12:20:35;9.10;;;4.03;;
20894;SDS011;10607;42.066;24.742;2023-08-06T12:23:00;7.40;;;4.68;;
20894;SDS011;10607;42.066;24.742;2023-08-06T12:25:25;7.90;;;4.40;;
20894;SDS011;10607;42.066;24.742;2023-08-06T12:27:51;3.92;;;3.53;;
20894;SDS011;10607;42.066;24.742;2023-08-06T12:30:16;3.25;;;2.95;;
20894;SDS011;10607;42.066;24.742;2023-08-06T12:32:41;7.07;;;3.03;;
20894;SDS011;10607;42.066;24.742;2023-08-06T12:35:07;14.18;;;3.55;;
20894;SDS011;10607;42.066;24.742;2023-08-06T12:37:32;3.08;;;2.53;;
20894;SDS011;10607;42.066;24.742;2023-08-06T12:39:57;3.55;;;2.90;;
20894;SDS011;10607;42.066;24.742;2023-08-06T12:42:23;2.45;;;2.25;;
20894;SDS011;10607;42.066;24.742;2023-08-06T12:44:49;7.95;;;2.90;;
20894;SDS011;10607;42.066;24.742;2023-08-06T12:47:15;6.63;;;2.50;;
20894;SDS011;10607;42.066;24.742;2023-08-06T12:49:41;4.07;;;2.85;;
20894;SDS011;10607;42.066;24.742;2023-08-06T12:52:06;7.38;;;2.63;;
20894;SDS011;10607;42.066;24.742;2023-08-06T12:54:32;9.88;;;2.70;;
20894;SDS011;10607;42.066;24.742;2023-08-06T12:57:02;4.03;;;2.20;;
20894;SDS011;10607;42.066;24.742;2023-08-06T12:59:27;2.30;;;2.10;;
20894;SDS011;10607;42.066;24.742;2023-08-06T13:01:52;6.28;;;2.38;;
20894;SDS011;10607;42.066;24.742;2023-08-06T13:04:18;4.32;;;2.03;;
20894;SDS011;10607;42.066;24.742;2023-08-06T13:06:43;2.20;;;2.00;;
20894;SDS011;10607;42.066;24.742;2023-08-06T13:09:09;3.85;;;2.40;;
20894;SDS011;10607;42.066;24.742;2023-08-06T13:11:35;3.15;;;2.38;;
20894;SDS011;10607;42.066;24.742;2023-08-06T13:14:07;4.38;;;2.55;;
20894;SDS011;10607;42.066;24.742;2023-08-06T13:16:34;3.85;;;2.67;;
20894;SDS011;10607;42.066;24.742;2023-08-06T13:18:59;3.72;;;2.20;;
20894;SDS011;10607;42.066;24.742;2023-08-06T13:21:31;6.32;;;2.38;;
20894;SDS011;10607;42.066;24.742;2023-08-06T13:23:57;6.75;;;2.47;;
20894;SDS011;10607;42.066;24.742;2023-08-06T13:26:22;4.40;;;2.85;;
20894;SDS011;10607;42.066;24.742;2023-08-06T13:28:47;4.15;;;2.17;;
20894;SDS011;10607;42.066;24.742;2023-08-06T13:31:14;3.25;;;1.83;;
20894;SDS011;10607;42.066;24.742;2023-08-06T13:33:39;4.28;;;2.15;;
20894;SDS011;10607;42.066;24.742;2023-08-06T13:36:04;3.05;;;1.95;;
20894;SDS011;10607;42.066;24.742;2023-08-06T13:38:30;2.55;;;1.90;;
20894;SDS011;10607;42.066;24.742;2023-08-06T13:40:55;2.58;;;2.00;;
20894;SDS011;10607;42.066;24.742;2023-08-06T13:43:20;4.95;;;2.05;;
20894;SDS011;10607;42.066;24.742;2023-08-06T13:45:46;2.97;;;2.25;;
20894;SDS011;10607;42.066;24.742;2023-08-06T13:48:11;3.05;;;2.20;;
20894;SDS011;10607;42.066;24.742;2023-08-06T13:50:36;3.03;;;1.65;;
20894;SDS011;10607;42.066;24.742;2023-08-06T13:53:02;5.20;;;2.20;;
20894;SDS011;10607;42.066;24.742;2023-08-06T13:55:27;2.58;;;2.00;;
20894;SDS011;10607;42.066;24.742;2023-08-06T13:57:53;2.47;;;1.77;;
20894;SDS011;10607;42.066;24.742;2023-08-06T14:00:18;3.92;;;1.70;;
20894;SDS011;10607;42.066;24.742;2023-08-06T14:02:43;2.88;;;1.75;;
20894;SDS011;10607;42.066;24.742;2023-08-06T14:05:09;5.28;;;1.98;;
20894;SDS011;10607;42.066;24.742;2023-08-06T14:07:34;3.25;;;1.88;;
20894;SDS011;10607;42.066;24.742;2023-08-06T14:10:00;5.60;;;1.52;;
20894;SDS011;10607;42.066;24.742;2023-08-06T14:12:25;2.33;;;1.70;;
20894;SDS011;10607;42.066;24.742;2023-08-06T14:14:50;3.28;;;1.70;;
20894;SDS011;10607;42.066;24.742;2023-08-06T14:17:16;2.45;;;1.40;;
20894;SDS011;10607;42.066;24.742;2023-08-06T14:19:41;2.42;;;1.63;;
20894;SDS011;10607;42.066;24.742;2023-08-06T14:22:06;5.07;;;1.60;;
20894;SDS011;10607;42.066;24.742;2023-08-06T14:24:31;4.50;;;1.60;;
20894;SDS011;10607;42.066;24.742;2023-08-06T14:26:57;2.13;;;1.52;;
20894;SDS011;10607;42.066;24.742;2023-08-06T14:29:22;3.92;;;1.63;;